Time;durP1;ratioP1;P1;durP2;ratioP2;P2;SDS_P1;SDS_P2;PMS_P1;PMS_P2;Temp;Humidity;BMP_temperature;BMP_pressure;BME280_temperature;BME280_humidity;BME280_pressure;Samples;Min_cycle;Max_cycle;Signal;HPM_P1;HPM_P2
2021/06/08 00:00:16;;;;;;;34.13;8.43;;;20.80;57.20;;;;;;5042475;28;20535;-88
2021/06/08 00:02:43;;;;;;;7.27;5.50;;;20.60;57.80;;;;;;5039428;28;20449;-88
2021/06/08 00:05:10;;;;;;;12.20;7.60;;;20.30;58.90;;;;;;5037995;28;20484;-87
2021/06/08 00:07:38;;;;;;;7.23;4.87;;;20.10;58.80;;;;;;5039454;28;20474;-88
2021/06/08 00:10:06;;;;;;;10.33;6.20;;;20.30;58.90;;;;;;5042375;28;20448;-88
2021/06/08 00:12:32;;;;;;;14.30;9.43;;;20.20;58.80;;;;;;5038671;28;20484;-86
2021/06/08 00:14:59;;;;;;;10.73;5.83;;;20.40;58.30;;;;;;5034433;28;20449;-85
2021/06/08 00:17:25;;;;;;;13.63;7.20;;;20.40;59.00;;;;;;5034456;28;20453;-85
2021/06/08 00:19:52;;;;;;;24.23;8.33;;;20.40;58.20;;;;;;5033977;28;20449;-85
2021/06/08 00:22:18;;;;;;;12.80;7.10;;;20.80;57.50;;;;;;5034020;28;20565;-85
2021/06/08 00:24:46;;;;;;;12.63;7.60;;;21.00;56.70;;;;;;5038157;28;20579;-87
2021/06/08 00:27:15;;;;;;;9.70;5.57;;;21.10;55.70;;;;;;5038856;28;20524;-87
2021/06/08 00:29:41;;;;;;;9.17;6.10;;;21.20;55.60;;;;;;5038909;28;20572;-88
2021/06/08 00:32:08;;;;;;;11.50;6.17;;;21.20;55.30;;;;;;5038303;28;20477;-87
2021/06/08 00:34:34;;;;;;;17.80;7.93;;;21.20;55.40;;;;;;5040127;28;20456;-87
2021/06/08 00:37:01;;;;;;;9.70;6.80;;;21.20;55.70;;;;;;5057181;28;20430;-88
2021/06/08 00:39:27;;;;;;;8.90;6.80;;;21.10;55.80;;;;;;5046270;28;20453;-87
2021/06/08 00:41:55;;;;;;;9.43;6.50;;;21.00;55.40;;;;;;5040222;28;20942;-87
2021/06/08 00:44:21;;;;;;;8.40;6.10;;;20.90;56.70;;;;;;5038055;28;20571;-87
2021/06/08 00:46:48;;;;;;;7.20;5.50;;;20.80;56.50;;;;;;5038442;28;20807;-87
2021/06/08 00:49:15;;;;;;;10.63;6.00;;;21.00;56.00;;;;;;5038327;28;20452;-87
2021/06/08 00:51:42;;;;;;;8.30;5.97;;;21.00;55.80;;;;;;5038700;28;20477;-87
2021/06/08 00:54:10;;;;;;;7.27;4.50;;;20.90;56.20;;;;;;5039094;28;20468;-87
2021/06/08 00:56:39;;;;;;;8.50;4.77;;;21.00;56.00;;;;;;5038663;28;20874;-87
2021/06/08 00:59:08;;;;;;;9.23;4.93;;;20.70;55.30;;;;;;5038625;28;20484;-87
2021/06/08 01:01:35;;;;;;;13.60;5.13;;;21.00;55.80;;;;;;5042860;28;20497;-87
2021/06/08 01:04:02;;;;;;;5.97;4.93;;;20.90;56.20;;;;;;5043824;28;20542;-87
2021/06/08 01:06:31;;;;;;;6.77;4.93;;;20.70;57.80;;;;;;5044264;28;20447;-87
2021/06/08 01:08:57;;;;;;;11.33;5.20;;;20.80;56.80;;;;;;5043073;28;20468;-89
2021/06/08 01:11:24;;;;;;;10.10;6.53;;;20.80;56.80;;;;;;5044057;28;20465;-87
2021/06/08 01:13:50;;;;;;;9.90;5.30;;;20.80;56.30;;;;;;5042638;28;20787;-87
2021/06/08 01:16:18;;;;;;;6.87;5.00;;;20.70;56.90;;;;;;5042507;28;20449;-88
2021/06/08 01:18:45;;;;;;;8.07;4.90;;;20.80;56.50;;;;;;5044931;28;20505;-88
2021/06/08 01:21:13;;;;;;;8.60;5.60;;;20.60;56.80;;;;;;5050264;28;20484;-88
2021/06/08 01:26:34;;;;;;;7.57;5.40;;;20.00;58.70;;;;;;5006351;28;20440;-87
2021/06/08 01:29:02;;;;;;;6.07;5.23;;;20.00;58.70;;;;;;5043069;28;20456;-87
2021/06/08 01:31:34;;;;;;;10.33;6.00;;;20.10;58.80;;;;;;5042740;28;20481;-87
2021/06/08 01:34:01;;;;;;;15.23;6.00;;;20.00;58.70;;;;;;5042505;28;20449;-87
2021/06/08 01:36:34;;;;;;;11.60;6.50;;;20.00;58.70;;;;;;5042712;28;20465;-88
2021/06/08 01:39:01;;;;;;;8.20;5.80;;;19.80;59.20;;;;;;5043060;28;20441;-87
2021/06/08 01:41:30;;;;;;;8.03;6.00;;;19.90;58.60;;;;;;5041894;28;20481;-87
2021/06/08 01:43:57;;;;;;;8.53;5.50;;;20.30;57.50;;;;;;5042089;28;20503;-88
2021/06/08 01:46:24;;;;;;;10.80;5.50;;;20.50;57.30;;;;;;5042732;28;20452;-88
2021/06/08 01:48:52;;;;;;;8.30;6.07;;;20.60;56.90;;;;;;5051670;28;20476;-87
2021/06/08 01:51:25;;;;;;;9.53;5.97;;;20.50;57.40;;;;;;5052667;28;20480;-87
2021/06/08 01:54:05;;;;;;;8.87;6.40;;;20.50;56.90;;;;;;5045997;28;20454;-87
2021/06/08 01:56:34;;;;;;;12.00;6.50;;;20.60;57.30;;;;;;5045287;28;20903;-87
2021/06/08 01:59:17;;;;;;;8.40;6.03;;;20.50;57.60;;;;;;5045047;28;20477;-88
2021/06/08 02:01:50;;;;;;;11.57;7.23;;;20.40;57.70;;;;;;5046679;28;20552;-87
2021/06/08 02:04:24;;;;;;;9.37;6.60;;;20.60;57.40;;;;;;5045788;28;20481;-87
2021/06/08 02:07:02;;;;;;;11.43;7.70;;;20.30;57.70;;;;;;5045460;28;20458;-87
2021/06/08 02:09:38;;;;;;;11.50;6.87;;;20.30;57.80;;;;;;5044708;28;20464;-87
2021/06/08 02:12:13;;;;;;;9.97;7.67;;;20.20;58.20;;;;;;5043145;28;20508;-87
2021/06/08 02:14:44;;;;;;;15.20;7.57;;;20.30;58.30;;;;;;5042911;28;20440;-87
2021/06/08 02:17:17;;;;;;;12.13;7.80;;;20.40;58.00;;;;;;5042531;28;20495;-87
2021/06/08 02:19:45;;;;;;;9.53;6.90;;;20.30;58.10;;;;;;5043148;28;20456;-87
2021/06/08 02:22:13;;;;;;;11.10;7.50;;;20.40;57.80;;;;;;5042096;28;20504;-87
2021/06/08 02:24:45;;;;;;;9.80;7.07;;;20.50;57.80;;;;;;5041791;28;20507;-88
2021/06/08 02:27:14;;;;;;;11.10;6.80;;;20.60;57.40;;;;;;5041003;28;20505;-87
2021/06/08 02:29:43;;;;;;;11.97;8.50;;;20.60;57.20;;;;;;5040751;28;20461;-87
2021/06/08 02:32:10;;;;;;;8.03;6.30;;;20.50;57.40;;;;;;5079503;22;20594;-84
2021/06/08 02:34:38;;;;;;;9.47;6.73;;;20.60;57.30;;;;;;5093176;28;20446;-84
2021/06/08 02:37:05;;;;;;;10.00;7.77;;;20.50;57.40;;;;;;5097516;28;20451;-84
2021/06/08 02:39:32;;;;;;;10.53;7.10;;;20.60;57.20;;;;;;5094809;28;20929;-84
2021/06/08 02:42:00;;;;;;;25.10;8.50;;;20.60;57.60;;;;;;5078215;28;20840;-84
2021/06/08 02:44:28;;;;;;;11.30;8.40;;;20.50;57.50;;;;;;5076963;28;20487;-84
2021/06/08 02:46:56;;;;;;;13.27;9.20;;;20.70;57.40;;;;;;5076366;28;20483;-84
2021/06/08 02:49:23;;;;;;;11.80;7.53;;;20.60;57.30;;;;;;5075880;28;20444;-85
2021/06/08 02:51:50;;;;;;;13.80;9.97;;;20.80;57.10;;;;;;5076000;28;20506;-84
2021/06/08 02:54:19;;;;;;;15.03;8.27;;;21.00;56.80;;;;;;5075173;28;20515;-84
2021/06/08 02:56:46;;;;;;;12.97;9.63;;;20.90;56.90;;;;;;5075889;28;20428;-84
2021/06/08 02:59:15;;;;;;;15.47;10.60;;;21.00;56.50;;;;;;5075857;28;20471;-84
2021/06/08 03:01:46;;;;;;;14.90;10.87;;;20.90;56.70;;;;;;5074994;28;21028;-84
2021/06/08 03:04:15;;;;;;;18.63;10.60;;;20.70;57.10;;;;;;5075670;28;20486;-85
2021/06/08 03:06:46;;;;;;;11.60;8.47;;;20.40;58.10;;;;;;5076095;28;20447;-84
2021/06/08 03:09:15;;;;;;;11.23;6.27;;;20.50;58.50;;;;;;5077547;28;20419;-85
2021/06/08 03:11:49;;;;;;;11.67;8.37;;;20.10;58.70;;;;;;5079393;28;20510;-83
2021/06/08 03:14:20;;;;;;;11.93;8.33;;;20.20;58.80;;;;;;5076159;28;20431;-84
2021/06/08 03:16:51;;;;;;;10.40;7.73;;;20.50;58.20;;;;;;5076105;28;20905;-84
2021/06/08 03:19:20;;;;;;;10.87;7.70;;;20.70;57.70;;;;;;5076136;28;20408;-83
2021/06/08 03:21:50;;;;;;;11.07;7.60;;;20.50;58.00;;;;;;5075560;28;20460;-84
2021/06/08 03:24:20;;;;;;;9.67;7.13;;;20.50;58.20;;;;;;5075975;28;20498;-84
2021/06/08 03:26:48;;;;;;;10.63;7.70;;;20.60;57.50;;;;;;5075185;28;20451;-83
2021/06/08 03:29:19;;;;;;;12.03;6.67;;;20.70;56.80;;;;;;5075084;28;20439;-84
2021/06/08 03:31:47;;;;;;;10.60;7.60;;;20.80;56.90;;;;;;5075840;28;20522;-83
2021/06/08 03:34:16;;;;;;;11.53;6.50;;;20.80;56.90;;;;;;5076007;28;20436;-85
2021/06/08 03:36:43;;;;;;;11.70;6.03;;;20.80;56.60;;;;;;5076091;28;20451;-84
2021/06/08 03:39:11;;;;;;;13.20;8.40;;;20.80;56.60;;;;;;5077141;28;20483;-84
2021/06/08 03:41:38;;;;;;;8.97;6.73;;;21.00;56.30;;;;;;5076089;28;20547;-84
2021/06/08 03:44:06;;;;;;;8.07;5.70;;;20.90;56.20;;;;;;5075611;28;20510;-83
2021/06/08 03:46:35;;;;;;;8.77;5.97;;;20.70;56.50;;;;;;5076491;28;20432;-84
2021/06/08 03:49:02;;;;;;;7.50;6.13;;;20.70;56.60;;;;;;5076275;28;20448;-84
2021/06/08 03:51:30;;;;;;;9.67;7.03;;;20.60;57.10;;;;;;5077553;28;20455;-84
2021/06/08 03:53:57;;;;;;;8.80;6.87;;;20.60;57.90;;;;;;5077318;28;20431;-84
2021/06/08 03:56:24;;;;;;;9.10;7.00;;;20.70;57.10;;;;;;5076588;28;20580;-84
2021/06/08 03:58:54;;;;;;;12.10;7.80;;;20.60;57.60;;;;;;5079739;28;20451;-84
2021/06/08 04:01:22;;;;;;;10.13;7.10;;;20.70;57.20;;;;;;5088374;28;20471;-84
2021/06/08 04:03:51;;;;;;;11.43;6.97;;;20.80;57.40;;;;;;5088185;28;20467;-84
2021/06/08 04:06:19;;;;;;;12.17;6.90;;;20.70;57.20;;;;;;5078410;28;20586;-85
2021/06/08 04:08:46;;;;;;;7.43;6.33;;;20.80;56.80;;;;;;5078537;28;20424;-84
2021/06/08 04:11:16;;;;;;;9.53;7.00;;;20.90;56.60;;;;;;5078275;28;20924;-85
2021/06/08 04:13:43;;;;;;;8.50;6.80;;;20.80;56.90;;;;;;5079473;28;20418;-85
2021/06/08 04:16:10;;;;;;;11.70;7.20;;;20.70;57.20;;;;;;5080772;28;20443;-84
2021/06/08 04:18:37;;;;;;;12.90;7.20;;;20.50;57.80;;;;;;5084484;28;20482;-84
2021/06/08 04:21:05;;;;;;;9.63;6.70;;;20.70;57.50;;;;;;5078774;28;20447;-84
2021/06/08 04:23:32;;;;;;;9.83;7.47;;;20.80;57.30;;;;;;5078133;28;20451;-84
2021/06/08 04:25:59;;;;;;;13.70;8.10;;;20.80;57.10;;;;;;5078201;28;20455;-85
2021/06/08 04:28:27;;;;;;;9.87;8.07;;;20.80;57.60;;;;;;5080885;28;20553;-84
2021/06/08 04:30:55;;;;;;;13.00;7.87;;;20.60;58.20;;;;;;5090780;28;20434;-84
2021/06/08 04:33:23;;;;;;;12.83;7.43;;;20.40;59.00;;;;;;5090696;28;20490;-84
2021/06/08 04:35:50;;;;;;;12.80;8.17;;;20.30;58.90;;;;;;5087647;28;20457;-84
2021/06/08 04:38:18;;;;;;;12.53;8.80;;;20.60;59.10;;;;;;5083132;28;20451;-84
2021/06/08 04:40:46;;;;;;;12.00;8.30;;;20.40;58.70;;;;;;5093018;28;20443;-84
2021/06/08 04:43:13;;;;;;;11.67;8.60;;;20.60;58.70;;;;;;5092773;28;20451;-84
2021/06/08 04:45:39;;;;;;;19.13;8.70;;;20.70;58.10;;;;;;5095301;28;20987;-84
2021/06/08 04:48:07;;;;;;;13.20;8.70;;;20.90;58.00;;;;;;5089862;28;20933;-84
2021/06/08 04:50:33;;;;;;;11.13;8.90;;;20.80;57.80;;;;;;5079079;28;20463;-84
2021/06/08 04:53:03;;;;;;;10.27;7.70;;;21.00;57.70;;;;;;5079099;28;20479;-84
2021/06/08 04:55:31;;;;;;;9.50;8.00;;;21.00;57.80;;;;;;5078579;28;20436;-85
2021/06/08 04:57:59;;;;;;;14.10;7.90;;;21.00;57.00;;;;;;5078510;28;20932;-86
2021/06/08 05:00:33;;;;;;;13.70;7.77;;;21.10;57.10;;;;;;5079235;28;20534;-85
2021/06/08 05:03:07;;;;;;;9.43;7.00;;;21.20;57.10;;;;;;5078931;28;20485;-85
2021/06/08 05:05:37;;;;;;;11.73;6.60;;;21.20;56.80;;;;;;5077394;28;20960;-85
2021/06/08 05:08:08;;;;;;;9.23;6.43;;;21.20;56.40;;;;;;5077735;28;20451;-85
2021/06/08 05:10:39;;;;;;;9.00;6.40;;;21.00;56.60;;;;;;5078148;28;20903;-85
2021/06/08 05:13:08;;;;;;;9.03;6.30;;;21.20;56.70;;;;;;5078509;28;20522;-85
2021/06/08 05:15:37;;;;;;;9.13;5.10;;;21.10;56.70;;;;;;5078295;28;20553;-84
2021/06/08 05:18:06;;;;;;;9.13;6.60;;;21.30;56.30;;;;;;5077860;28;20489;-84
2021/06/08 05:20:38;;;;;;;14.33;5.40;;;21.20;56.40;;;;;;5077972;28;20474;-84
2021/06/08 05:23:05;;;;;;;8.80;7.10;;;21.20;56.90;;;;;;5077822;28;20488;-84
2021/06/08 05:25:31;;;;;;;6.40;5.63;;;21.10;56.60;;;;;;5077606;28;20563;-84
2021/06/08 05:28:00;;;;;;;9.10;6.97;;;21.30;56.60;;;;;;5076433;28;20492;-84
2021/06/08 05:30:28;;;;;;;9.20;6.60;;;21.40;56.60;;;;;;5076145;28;20443;-85
2021/06/08 05:32:54;;;;;;;9.50;6.60;;;21.40;56.40;;;;;;5076048;28;20475;-85
2021/06/08 05:35:26;;;;;;;8.40;6.50;;;21.30;56.70;;;;;;5076426;28;20463;-84
2021/06/08 05:37:52;;;;;;;8.87;6.83;;;21.20;57.20;;;;;;5076404;28;20412;-85
2021/06/08 05:40:22;;;;;;;9.23;6.87;;;21.00;57.60;;;;;;5076745;28;20510;-85
2021/06/08 05:42:49;;;;;;;9.47;7.70;;;20.90;57.80;;;;;;5076689;28;20524;-85
2021/06/08 05:45:17;;;;;;;8.37;6.97;;;20.80;58.10;;;;;;5076325;28;20484;-85
2021/06/08 05:47:43;;;;;;;16.53;7.07;;;20.80;58.80;;;;;;5075448;28;20975;-85
2021/06/08 05:50:11;;;;;;;11.53;6.70;;;20.70;59.30;;;;;;5076403;28;20475;-85
2021/06/08 05:52:38;;;;;;;11.67;6.67;;;20.90;58.20;;;;;;5075704;28;20456;-85
2021/06/08 05:55:06;;;;;;;12.90;7.50;;;20.90;59.00;;;;;;5076145;28;20474;-86
2021/06/08 05:57:33;;;;;;;11.20;6.60;;;21.10;57.70;;;;;;5075781;28;20435;-86
2021/06/08 06:00:04;;;;;;;9.30;7.00;;;21.20;57.80;;;;;;5075754;28;20475;-86
2021/06/08 06:02:34;;;;;;;9.70;6.33;;;21.10;58.10;;;;;;5075249;28;20475;-86
2021/06/08 06:05:01;;;;;;;9.43;6.50;;;21.20;58.00;;;;;;5076780;28;20471;-84
2021/06/08 06:07:27;;;;;;;10.97;7.27;;;21.40;57.00;;;;;;5076184;28;20443;-85
2021/06/08 06:09:54;;;;;;;10.37;7.57;;;21.50;57.30;;;;;;5075337;28;20448;-84
2021/06/08 06:12:21;;;;;;;10.97;7.03;;;21.60;57.00;;;;;;5075678;28;20465;-84
2021/06/08 06:14:49;;;;;;;15.37;6.13;;;21.90;55.90;;;;;;5076170;28;20801;-84
2021/06/08 06:17:16;;;;;;;7.83;5.93;;;21.60;56.10;;;;;;5076344;28;20431;-84
2021/06/08 06:19:44;;;;;;;8.23;6.50;;;21.20;57.20;;;;;;5075843;28;20446;-84
2021/06/08 06:22:11;;;;;;;10.53;6.57;;;21.20;57.20;;;;;;5075710;28;20455;-84
2021/06/08 06:24:38;;;;;;;7.83;6.27;;;21.30;57.50;;;;;;5075917;28;20471;-84
2021/06/08 06:27:06;;;;;;;14.67;7.67;;;21.30;57.20;;;;;;5075403;28;20439;-84
2021/06/08 06:29:32;;;;;;;9.77;7.20;;;21.20;58.10;;;;;;5076035;28;20470;-84
2021/06/08 06:31:59;;;;;;;16.33;7.13;;;21.20;57.70;;;;;;5082959;28;20988;-84
2021/06/08 06:34:25;;;;;;;13.10;7.90;;;21.50;57.20;;;;;;5088629;28;20439;-84
2021/06/08 06:36:56;;;;;;;11.93;7.47;;;21.50;57.00;;;;;;5087839;28;20454;-84
2021/06/08 06:39:24;;;;;;;12.23;8.47;;;21.80;55.80;;;;;;5089643;28;20505;-84
2021/06/08 06:41:53;;;;;;;21.03;9.17;;;21.80;56.80;;;;;;5090459;28;20774;-84
2021/06/08 06:44:20;;;;;;;25.40;9.83;;;21.70;56.80;;;;;;5089017;28;20475;-85
2021/06/08 06:46:48;;;;;;;16.87;8.60;;;21.70;56.20;;;;;;5087835;28;20439;-85
2021/06/08 06:49:14;;;;;;;18.30;8.90;;;21.70;56.20;;;;;;5078228;28;20447;-86
2021/06/08 06:51:43;;;;;;;16.83;10.33;;;22.00;56.10;;;;;;5076681;28;20491;-85
2021/06/08 06:54:12;;;;;;;20.10;10.57;;;22.00;56.00;;;;;;5076465;28;20443;-85
2021/06/08 06:56:39;;;;;;;31.30;10.17;;;22.00;56.30;;;;;;5076608;28;20994;-85
2021/06/08 06:59:06;;;;;;;32.83;11.87;;;22.30;55.40;;;;;;5085083;28;20443;-85
2021/06/08 07:01:33;;;;;;;16.50;9.83;;;22.20;54.80;;;;;;5097096;28;20452;-85
2021/06/08 07:04:01;;;;;;;24.97;11.47;;;21.80;56.10;;;;;;5098243;28;20469;-85
2021/06/08 07:06:29;;;;;;;25.07;10.60;;;21.80;55.90;;;;;;5097565;28;20443;-85
2021/06/08 07:08:57;;;;;;;21.13;13.37;;;21.90;56.80;;;;;;5084260;28;20427;-85
2021/06/08 07:11:26;;;;;;;23.13;13.03;;;21.80;56.30;;;;;;5075383;28;20816;-86
2021/06/08 07:13:53;;;;;;;27.30;13.40;;;21.90;56.50;;;;;;5075592;28;20427;-86
2021/06/08 07:16:22;;;;;;;28.50;12.73;;;22.00;56.60;;;;;;5076231;28;20531;-85
2021/06/08 07:18:49;;;;;;;25.10;12.47;;;22.10;56.60;;;;;;5078283;28;20475;-86
2021/06/08 07:21:17;;;;;;;16.97;11.27;;;22.10;56.30;;;;;;5075294;28;20529;-86
2021/06/08 07:23:46;;;;;;;32.90;12.80;;;22.20;55.80;;;;;;5076165;28;20521;-86
2021/06/08 07:26:13;;;;;;;19.33;11.13;;;22.40;55.40;;;;;;5075006;28;20407;-86
2021/06/08 07:28:41;;;;;;;24.70;12.10;;;22.60;54.80;;;;;;5074790;28;20447;-86
2021/06/08 07:31:13;;;;;;;17.23;10.30;;;22.70;54.80;;;;;;5074773;28;20521;-86
2021/06/08 07:33:46;;;;;;;21.20;12.37;;;22.30;55.30;;;;;;5074801;28;20436;-86
2021/06/08 07:36:20;;;;;;;25.63;11.17;;;22.30;55.50;;;;;;5074455;28;20431;-85
2021/06/08 07:38:56;;;;;;;18.80;11.17;;;22.60;55.10;;;;;;5074856;28;20434;-86
2021/06/08 07:41:31;;;;;;;18.30;10.27;;;22.60;54.50;;;;;;5086082;28;20466;-86
2021/06/08 07:44:02;;;;;;;21.77;10.37;;;22.40;55.10;;;;;;5088291;28;20450;-85
2021/06/08 07:46:30;;;;;;;17.03;10.10;;;22.20;56.20;;;;;;5090128;28;20439;-85
2021/06/08 07:48:59;;;;;;;28.27;11.50;;;22.20;56.20;;;;;;5088069;28;20439;-86
2021/06/08 07:51:27;;;;;;;18.80;10.63;;;22.50;56.60;;;;;;5089287;28;20533;-86
2021/06/08 07:53:54;;;;;;;18.67;10.70;;;22.90;55.10;;;;;;5083143;28;20435;-86
2021/06/08 07:56:22;;;;;;;17.33;10.97;;;23.50;54.80;;;;;;5075547;28;20534;-85
2021/06/08 07:58:49;;;;;;;15.57;7.90;;;23.90;53.40;;;;;;5075504;28;20902;-86
2021/06/08 08:01:20;;;;;;;17.40;11.30;;;24.10;51.50;;;;;;5075604;28;20986;-86
2021/06/08 08:03:48;;;;;;;22.50;11.43;;;24.10;51.80;;;;;;5077730;28;20431;-86
2021/06/08 08:06:15;;;;;;;19.03;11.60;;;24.00;52.50;;;;;;5093446;28;20474;-86
2021/06/08 08:08:43;;;;;;;33.10;12.60;;;24.20;51.80;;;;;;5092837;28;20443;-86
2021/06/08 08:11:13;;;;;;;19.53;11.87;;;24.00;52.20;;;;;;5085484;28;20447;-85
2021/06/08 08:13:41;;;;;;;17.07;9.87;;;24.20;52.30;;;;;;5082596;28;20883;-86
2021/06/08 08:16:10;;;;;;;20.07;11.40;;;24.30;51.60;;;;;;5075066;28;20960;-86
2021/06/08 08:18:39;;;;;;;18.47;12.30;;;24.10;50.90;;;;;;5075117;28;20432;-86
2021/06/08 08:21:09;;;;;;;24.70;14.87;;;23.90;51.70;;;;;;5075731;28;20825;-85
2021/06/08 08:23:36;;;;;;;21.70;13.20;;;23.90;51.80;;;;;;5080509;28;20455;-85
2021/06/08 08:26:05;;;;;;;19.40;12.50;;;24.00;51.60;;;;;;5081504;28;20478;-86
2021/06/08 08:28:31;;;;;;;20.20;13.00;;;24.00;51.40;;;;;;5082258;28;20462;-86
2021/06/08 08:31:00;;;;;;;20.53;13.83;;;23.80;51.60;;;;;;5082028;28;20571;-86
2021/06/08 08:33:28;;;;;;;19.90;13.03;;;24.00;51.60;;;;;;5081983;28;20467;-85
2021/06/08 08:35:57;;;;;;;22.63;14.77;;;24.10;51.00;;;;;;5074176;28;20988;-86
2021/06/08 08:38:24;;;;;;;30.47;15.03;;;24.20;51.40;;;;;;5072537;28;20470;-86
2021/06/08 08:40:51;;;;;;;31.13;15.00;;;24.10;51.10;;;;;;5075402;28;20493;-85
2021/06/08 08:43:18;;;;;;;29.00;14.03;;;24.30;52.10;;;;;;5075283;28;20478;-86
2021/06/08 08:45:47;;;;;;;20.50;12.70;;;24.60;51.20;;;;;;5076127;28;20479;-86
2021/06/08 08:48:14;;;;;;;17.73;11.50;;;24.80;49.80;;;;;;5073901;28;20787;-86
2021/06/08 08:50:40;;;;;;;19.93;12.30;;;25.30;50.10;;;;;;5074109;28;20486;-86
2021/06/08 08:53:09;;;;;;;21.73;13.60;;;25.50;49.40;;;;;;5073973;28;20531;-86
2021/06/08 08:55:36;;;;;;;21.53;14.23;;;24.90;49.00;;;;;;5073857;28;20523;-86
2021/06/08 08:58:05;;;;;;;26.97;15.70;;;24.90;49.00;;;;;;5075040;28;20451;-87
2021/06/08 09:00:32;;;;;;;22.20;15.00;;;24.80;50.30;;;;;;5075046;28;20450;-86
2021/06/08 09:03:01;;;;;;;24.13;15.57;;;24.80;48.90;;;;;;5073678;28;20503;-86
2021/06/08 09:05:34;;;;;;;21.43;15.63;;;24.90;49.70;;;;;;5073611;28;20475;-85
2021/06/08 09:08:00;;;;;;;21.80;14.33;;;25.30;48.90;;;;;;5073817;28;20455;-85
2021/06/08 09:10:28;;;;;;;22.80;14.60;;;25.00;49.10;;;;;;5073933;28;20447;-86
2021/06/08 09:12:55;;;;;;;26.40;14.37;;;25.20;49.20;;;;;;5074031;28;20550;-86
2021/06/08 09:15:21;;;;;;;23.07;16.23;;;25.20;49.20;;;;;;5074076;28;20797;-86
2021/06/08 09:17:52;;;;;;;25.67;17.67;;;25.10;49.10;;;;;;5074074;28;20450;-86
2021/06/08 09:20:18;;;;;;;25.70;16.10;;;25.20;48.40;;;;;;5074682;28;20404;-86
2021/06/08 09:22:54;;;;;;;31.53;16.00;;;25.30;48.10;;;;;;5078810;28;20450;-86
2021/06/08 09:28:25;;;;;;;26.23;17.83;;;25.10;48.20;;;;;;5176816;27;20748;-84
2021/06/08 09:30:56;;;;;;;32.57;19.70;;;25.30;48.40;;;;;;5071621;28;20517;-84
2021/06/08 09:33:25;;;;;;;40.13;19.80;;;25.50;47.30;;;;;;5072115;28;20577;-85
2021/06/08 09:35:54;;;;;;;27.80;19.37;;;25.20;47.60;;;;;;5071877;27;20504;-86
2021/06/08 09:38:21;;;;;;;34.30;19.00;;;25.00;47.70;;;;;;5069675;28;20444;-86
2021/06/08 09:40:48;;;;;;;33.50;18.83;;;25.30;47.60;;;;;;5069986;27;20448;-86
2021/06/08 09:43:15;;;;;;;30.07;17.47;;;25.30;48.20;;;;;;5070514;28;20487;-86
2021/06/08 09:45:45;;;;;;;26.43;18.90;;;25.40;48.30;;;;;;5072104;28;20451;-86
2021/06/08 09:48:12;;;;;;;46.40;25.80;;;25.50;48.30;;;;;;5078962;28;20574;-86
2021/06/08 09:50:40;;;;;;;50.20;28.00;;;25.60;48.60;;;;;;5076925;28;20463;-86
2021/06/08 09:53:24;;;;;;;41.13;22.67;;;25.70;47.90;;;;;;5077116;28;20978;-86
2021/06/08 09:55:57;;;;;;;29.10;20.67;;;25.90;47.70;;;;;;5074106;28;20424;-86
2021/06/08 09:58:24;;;;;;;28.37;19.47;;;26.00;47.80;;;;;;5074716;28;20440;-86
2021/06/08 10:01:13;;;;;;;33.60;22.23;;;26.30;47.00;;;;;;5077790;27;20572;-86
2021/06/08 10:03:41;;;;;;;36.53;24.20;;;26.70;45.70;;;;;;5073996;28;20463;-86
2021/06/08 10:06:09;;;;;;;40.63;25.30;;;26.10;45.60;;;;;;5075584;28;20475;-86
2021/06/08 10:08:38;;;;;;;34.40;22.87;;;26.20;46.40;;;;;;5067530;28;20512;-86
2021/06/08 10:11:13;;;;;;;44.73;24.43;;;26.20;46.50;;;;;;5067608;27;20455;-86
2021/06/08 10:13:40;;;;;;;39.10;26.80;;;26.10;46.80;;;;;;5067455;28;20436;-86
2021/06/08 10:16:09;;;;;;;42.23;26.20;;;25.90;46.90;;;;;;5067536;27;20814;-86
2021/06/08 10:18:44;;;;;;;37.27;26.27;;;25.70;47.00;;;;;;5067169;27;20440;-86
2021/06/08 10:21:11;;;;;;;40.77;24.63;;;24.80;48.00;;;;;;5067189;28;20848;-86
2021/06/08 10:23:37;;;;;;;44.13;26.33;;;24.40;49.70;;;;;;5067036;28;20440;-86
2021/06/08 10:26:09;;;;;;;38.23;26.67;;;25.10;48.40;;;;;;5067076;28;20440;-86
2021/06/08 10:28:36;;;;;;;44.90;28.77;;;25.70;46.30;;;;;;5067237;27;20473;-86
2021/06/08 10:31:04;;;;;;;41.47;27.63;;;25.50;47.30;;;;;;5067262;27;20597;-86
2021/06/08 10:33:33;;;;;;;41.77;29.10;;;25.40;46.60;;;;;;5066950;28;20518;-86
2021/06/08 10:36:00;;;;;;;38.60;27.60;;;25.20;47.40;;;;;;5066969;28;20479;-87
2021/06/08 10:38:27;;;;;;;46.03;29.60;;;25.20;47.50;;;;;;5060399;28;20475;-86
2021/06/08 10:40:55;;;;;;;43.47;30.20;;;24.60;48.80;;;;;;5055494;28;20490;-86
2021/06/08 10:43:23;;;;;;;44.00;29.77;;;24.20;51.00;;;;;;5054991;28;20547;-85
2021/06/08 10:45:54;;;;;;;47.93;30.30;;;24.10;50.90;;;;;;5055160;28;20429;-85
2021/06/08 10:48:25;;;;;;;44.80;27.80;;;24.60;49.60;;;;;;5055215;28;20412;-85
2021/06/08 10:51:09;;;;;;;49.07;29.83;;;24.90;49.70;;;;;;5055791;28;20815;-86
2021/06/08 10:53:38;;;;;;;56.90;32.60;;;25.20;48.20;;;;;;5054363;28;20792;-86
2021/06/08 10:56:23;;;;;;;43.93;30.40;;;25.40;47.70;;;;;;5054540;28;20579;-85
2021/06/08 10:58:52;;;;;;;48.40;32.50;;;25.40;48.00;;;;;;5055401;28;20440;-85
2021/06/08 11:01:47;;;;;;;43.50;30.33;;;25.20;48.40;;;;;;5054697;28;20433;-85
2021/06/08 11:04:16;;;;;;;42.80;31.07;;;25.20;48.30;;;;;;5055254;28;20845;-85
2021/06/08 11:06:50;;;;;;;51.13;30.37;;;25.20;47.50;;;;;;5054093;28;20996;-87
2021/06/08 11:09:34;;;;;;;48.80;33.57;;;24.90;48.40;;;;;;5053406;28;20436;-86
2021/06/08 11:12:17;;;;;;;47.40;31.67;;;25.40;47.90;;;;;;5053126;28;20964;-86
2021/06/08 11:15:00;;;;;;;52.47;31.47;;;25.70;47.30;;;;;;5052966;28;20976;-85
2021/06/08 11:17:44;;;;;;;46.27;30.60;;;26.00;47.10;;;;;;5054025;28;21000;-86
2021/06/08 11:20:26;;;;;;;43.90;26.27;;;25.70;45.70;;;;;;5054820;28;20417;-86
2021/06/08 11:23:01;;;;;;;44.43;31.80;;;26.00;45.60;;;;;;5055315;28;20456;-86
2021/06/08 11:25:31;;;;;;;38.70;28.23;;;26.50;44.20;;;;;;5054983;28;20428;-86
2021/06/08 11:27:59;;;;;;;43.03;28.20;;;26.50;45.20;;;;;;5054524;28;20504;-86
2021/06/08 11:30:27;;;;;;;39.80;29.10;;;26.00;43.90;;;;;;5054880;28;20432;-87
2021/06/08 11:32:54;;;;;;;38.67;29.20;;;25.40;45.30;;;;;;5054867;28;20547;-86
2021/06/08 11:35:23;;;;;;;39.93;25.77;;;25.50;46.40;;;;;;5055987;28;20851;-86
2021/06/08 11:38:10;;;;;;;39.70;26.40;;;26.00;44.80;;;;;;5053984;28;21078;-85
2021/06/08 11:40:59;;;;;;;40.57;27.20;;;26.20;43.80;;;;;;5053799;28;20458;-85
2021/06/08 11:43:56;;;;;;;40.00;28.37;;;26.00;45.40;;;;;;5054910;28;20461;-85
2021/06/08 11:46:31;;;;;;;40.00;27.93;;;25.70;45.40;;;;;;5054877;28;20785;-85
2021/06/08 11:49:06;;;;;;;40.80;28.90;;;25.90;45.60;;;;;;5053655;28;20948;-86
2021/06/08 11:51:36;;;;;;;38.53;26.97;;;24.90;46.40;;;;;;5052257;28;20509;-85
2021/06/08 11:54:09;;;;;;;36.30;28.23;;;25.10;46.60;;;;;;5052269;28;20955;-86
2021/06/08 11:56:44;;;;;;;38.87;25.37;;;25.90;44.50;;;;;;5052790;28;20420;-86
2021/06/08 11:59:12;;;;;;;31.73;24.00;;;26.20;42.60;;;;;;5052175;28;20496;-86
2021/06/08 12:01:40;;;;;;;33.87;23.17;;;26.30;43.10;;;;;;5052082;28;20469;-86
2021/06/08 12:04:07;;;;;;;38.57;25.40;;;26.40;41.40;;;;;;5051961;28;20428;-86
2021/06/08 12:06:56;;;;;;;41.03;27.70;;;25.30;44.00;;;;;;5052071;28;20998;-86
2021/06/08 12:09:24;;;;;;;57.50;26.13;;;24.80;45.90;;;;;;5064906;28;20492;-86
2021/06/08 12:11:52;;;;;;;39.67;27.53;;;25.10;45.90;;;;;;5069749;28;20469;-85
2021/06/08 12:14:19;;;;;;;37.70;27.73;;;25.20;45.60;;;;;;5060291;28;20459;-85
2021/06/08 12:16:49;;;;;;;47.87;28.87;;;25.00;46.00;;;;;;5051877;27;20441;-85
2021/06/08 12:19:15;;;;;;;41.00;28.23;;;25.40;45.80;;;;;;5052460;28;20440;-86
2021/06/08 12:21:44;;;;;;;39.77;28.00;;;25.90;45.30;;;;;;5051841;28;20480;-86
2021/06/08 12:24:16;;;;;;;39.53;27.13;;;26.50;44.00;;;;;;5053539;28;20455;-86
2021/06/08 12:26:56;;;;;;;40.50;28.90;;;26.90;42.50;;;;;;5052085;28;20582;-86
2021/06/08 12:29:23;;;;;;;45.27;24.73;;;27.10;42.30;;;;;;5051812;28;20464;-85
2021/06/08 12:32:00;;;;;;;35.10;25.10;;;27.10;41.60;;;;;;5052559;28;20499;-86
2021/06/08 12:34:28;;;;;;;36.97;25.40;;;27.30;41.60;;;;;;5052646;28;20447;-86
2021/06/08 12:36:55;;;;;;;34.50;25.47;;;27.50;41.20;;;;;;5052099;28;20455;-86
2021/06/08 12:39:28;;;;;;;43.13;29.10;;;27.50;40.80;;;;;;5051313;28;20527;-86
2021/06/08 12:42:09;;;;;;;41.17;26.73;;;27.20;41.40;;;;;;5050753;28;21029;-86
2021/06/08 12:44:35;;;;;;;37.50;27.07;;;27.40;41.40;;;;;;5051093;28;20463;-85
2021/06/08 12:47:03;;;;;;;35.80;24.97;;;27.80;41.00;;;;;;5051051;28;20595;-85
2021/06/08 12:49:35;;;;;;;33.70;23.67;;;27.90;41.30;;;;;;5051284;28;20428;-85
2021/06/08 12:52:02;;;;;;;36.03;24.47;;;27.60;41.50;;;;;;5051517;28;20471;-85